Tiempo atmosférico en la estación meteorológica de Alpedrete, Madrid (924 m.)



Fecha
DESCASC
Temp. máxima en grados centígrados (hora)
DESCASC
Temp. mínima en grados centígrados (hora)
DESCASC
Temp. media en grados centígrados
DESCASC
Racha de viento máxima en m/sg (hora)
DESCASC
Velocidad máxima media en intervalos de 10 minutos(hora)
DESCASC
Precipitaciones diarias en mm
DESCASC
Precipitaciones de 00:00 a 06:00 en mm
DESCASC
Precipitaciones de 06:00 a 12:00 en mm
DESCASC
Precipitaciones de 12:00 a 18:00 en mm
DESCASC
Precipitaciones de 18:00 a 24:00 en mm
DESCASC
05-12-2019 12.5 (13:10) 5.7 (08:20) 9.1 10.28 (22:40) 6.11 (15:10) 0.6 0.6 0 0 0
04-12-2019 12.5 (14:30) 4.2 (02:50) 8.3 6.94 (15:50) 3.89 (06:40) 0.2 0 0 0 0.2
03-12-2019 12.9 (14:50) 0.2 (00:00) 6.5 7.5 (19:40) 4.17 (10:30) 0 0 0 0 0
02-12-2019 10.6 (13:50) 3 (00:00) 6.8 8.61 (14:10) 5 (13:20) 1.6 1.6 0 0 0
01-12-2019 6.4 (00:20) 1.3 (00:00) 3.9 8.89 (23:50) 4.72 (00:20) 14.6 0 1.2 8.4 5
30-11-2019 14.6 (14:10) 6 (00:00) 10.3 10.83 (20:20) 6.11 (20:20) 4.6 0 0 1.2 3.4
29-11-2019 14.8 (13:50) 8.7 (00:00) 11.8 6.94 (04:50) 3.89 (07:00) 2 0.2 1.4 0.4 0
28-11-2019 12.2 (14:00) 4.9 (00:00) 8.5 7.5 (05:20) 4.17 (06:00) 0 0 0 0 0
27-11-2019 14.4 (14:40) 8 (00:00) 11.2 12.78 (07:10) 6.11 (07:10) 0.4 0.4 0 0 0
26-11-2019 11.7 (16:50) 5.8 (00:00) 8.8 8.33 (01:00) 5.28 (01:00) 0.4 0 0 0 0.4
25-11-2019 14.6 (14:40) 5.9 (00:00) 10.3 11.94 (13:40) 6.11 (10:30) 0.2 0.2 0 0 0
24-11-2019 10.3 (15:20) 4.6 (00:00) 7.5 12.5 (01:00) 7.22 (12:00) 0 0 0 0 0
23-11-2019 9.4 (15:30) 4.1 (00:00) 6.7 17.5 (06:00) 9.44 (06:00) 3.6 3.6 0 0 0
22-11-2019 9.4 (17:10) 4.9 (00:00) 7.1 6.39 (20:30) 4.17 (20:30) 20 2.4 8 9.4 0.2
21-11-2019 8.4 (13:00) 0.8 (00:00) 4.6 3.33 (15:40) 1.67 (15:40) 0.2 0 0 0.2 0
20-11-2019 7.4 (11:50) 1 (00:00) 4.2 3.89 (13:30) 1.67 (13:30) 3.6 0 0 3.6 0
19-11-2019 10 (11:30) -0.6 (-00:0) 4.7 5 (13:40) 2.5 (13:40) 0 0 0 0 0
18-11-2019 9.2 (14:20) 2.8 (00:00) 6 14.17 (13:40) 6.67 (13:40) 0.2 0.2 0 0 0
17-11-2019 8.8 (17:20) 3.3 (00:00) 6.1 12.22 (21:20) 6.67 (23:50) 3.4 0 0 2.4 1
16-11-2019 7.3 (14:30) 1.2 (00:00) 4.3 13.61 (11:50) 7.5 (12:00) 0 0 0 0 0
15-11-2019 5.4 (16:00) 1.3 (00:00) 3.4 14.17 (01:30) 7.22 (01:50) 1 1 0 0 0
14-11-2019 9.6 (00:00) 2.5 (00:00) 6.1 20 (20:40) 9.44 (18:20) 5.2 0 2.8 1.2 1.2
13-11-2019 14.6 (12:50) 7.9 (00:00) 11.3 17.78 (10:20) 9.17 (10:00) 17.6 12 5.6 0 0
12-11-2019 10.8 (12:10) 3.3 (00:00) 7.1 10.83 (16:30) 6.11 (16:30) 9.4 0 0 0 9.4
11-11-2019 12.8 (14:40) 3.6 (03:40) 8.2 11.94 (15:20) 5.28 (13:40) 0 0 0 0 0
10-11-2019 7.3 (00:20) 3.4 (00:00) 5.4 15 (00:20) 7.78 (00:20) 5 0 0 4.8 0.2
09-11-2019 9.9 (13:10) 4 (00:00) 6.9 16.39 (22:40) 9.72 (22:10) 3.2 0 0 3.2 0
08-11-2019 9.4 (16:00) 2.5 (00:00) 5.9 15.83 (15:00) 8.89 (12:50) 0 0 0 0 0

Gráficas

Temp. máximas Temp. mínimas Temp. medias Precipitaciones Rachas de viento máximas Velocidades máximas media en intervalos de 10 minutos

Datos horarios

Fecha y hora oficial Temperatura (ºC) Velocidad del viento (km/h) Dirección del viento Racha (km/h) Dirección de racha Precipitación (mm) Presión (hPa) Tendencia (hPa) Humedad (%)
2019-12-07 23:00:00 4.1 0 Calma 4 Oeste 0 -- -- 95
2019-12-07 22:00:00 4.6 0 Calma 4 Norte 0 -- -- 94
2019-12-07 21:00:00 5.2 0 Calma 4 Norte 0 -- -- 93
2019-12-07 20:00:00 6.6 0 Calma 3 Noroeste 0 -- -- 89
2019-12-07 19:00:00 7.4 0 Calma 5 Norte 0 -- -- 85
2019-12-07 18:00:00 9.5 0 Calma 10 Sur 0 -- -- 76
2019-12-07 17:00:00 12.8 6 Sur 13 Sur 0 -- -- 65
2019-12-07 16:00:00 14.9 4 Sur 12 Sudoeste 0 -- -- 56
2019-12-07 15:00:00 15.6 3 Sudoeste 10 Sur 0 -- -- 52
2019-12-07 14:00:00 15.1 3 Este 9 Sur 0 -- -- 54
2019-12-07 13:00:00 14.5 3 Sudoeste 9 Sur 0 -- -- 57
2019-12-07 12:00:00 13.6 3 Sudeste 7 Este 0 -- -- 59
2019-12-07 11:00:00 14 0 Calma 4 Sudeste 0 -- -- 61
2019-12-07 10:00:00 10.8 0 Calma 6 Norte 0 -- -- 79
2019-12-07 09:00:00 2.6 3 Este 7 Noroeste 0 -- -- 96
2019-12-07 08:00:00 1.6 0 Calma 4 Noroeste 0 -- -- 99
2019-12-07 07:00:00 2.2 0 Calma 8 Norte 0 -- -- 97
2019-12-07 06:00:00 2 0 Calma 8 Noroeste 0 -- -- 98
2019-12-07 05:00:00 2.2 4 Norte 8 Norte 0 -- -- 98
2019-12-07 04:00:00 2.9 4 Norte 7 Norte 0 -- -- 97
2019-12-07 03:00:00 2.3 3 Norte 6 Norte 0 -- -- 96
2019-12-07 02:00:00 2.9 2 Norte 6 Norte 0 -- -- 95
2019-12-07 01:00:00 3.6 2 Norte 6 Norte 0 -- -- 96
2019-12-07 00:00:00 3.4 3 Norte 6 Noroeste 0 -- -- 94
2019-12-06 23:00:00 3.5 0 Calma 4 Norte 0 -- -- 92
2019-12-06 22:00:00 4.3 0 Calma 5 Norte 0 -- -- 90
2019-12-06 21:00:00 5.3 2 Norte 6 Norte 0 -- -- 88
2019-12-06 20:00:00 6.8 0 Calma 6 Noroeste 0 -- -- 82
2019-12-06 19:00:00 7.9 4 Noroeste 6 Norte 0 -- -- 77
2019-12-06 18:00:00 9.7 3 Sur 10 Sudeste 0 -- -- 68
2019-12-06 17:00:00 12.8 4 Sur 9 Sur 0 -- -- 58
2019-12-06 16:00:00 13.3 6 Sudeste 12 Sudeste 0 -- -- 56
2019-12-06 15:00:00 14 5 Sur 13 Sur 0 -- -- 54
2019-12-06 14:00:00 11.9 5 Sur 13 Sudoeste 0 -- -- 60
2019-12-06 13:00:00 13.2 6 Sudeste 14 Este 0 -- -- 54
2019-12-06 12:00:00 10.8 10 Este 18 Este 0 -- -- 63
2019-12-06 11:00:00 10.1 9 Este 18 Este 0 -- -- 67
2019-12-06 10:00:00 11.5 0 Calma 4 Noroeste 0 -- -- 63
2019-12-06 09:00:00 4.4 0 Calma 6 Noroeste 0 -- -- 88
2019-12-06 08:00:00 4 0 Calma 6 Norte 0 -- -- 87
2019-12-06 07:00:00 5.7 0 Calma 13 Este 0 -- -- 84
2019-12-06 06:00:00 7 2 Norte 20 Este 0 -- -- 78
2019-12-06 05:00:00 7.6 14 Este 27 Este 0 -- -- 76
2019-12-06 04:00:00 7.7 17 Este 28 Este 0 -- -- 77
2019-12-06 03:00:00 7.6 19 Este 34 Nordeste 0 -- -- 78
2019-12-06 02:00:00 7.7 17 Este 32 Este 0 -- -- 77
2019-12-06 01:00:00 7.8 16 Este 30 Este 0 -- -- 76
2019-12-06 00:00:00 7.2 5 Este 21 Nordeste 0 -- -- 77
2019-12-05 23:00:00 7.6 8 Este 37 Este 0 -- -- 76
2019-12-05 22:00:00 7.5 15 Este 32 Este 0 -- -- 77
2019-12-05 21:00:00 7.7 13 Este 26 Este 0 -- -- 76
2019-12-05 20:00:00 7.9 17 Este 27 Este 0 -- -- 77
2019-12-05 19:00:00 8.5 6 Nordeste 19 Nordeste 0 -- -- 73
2019-12-05 18:00:00 8.9 9 Este 28 Este 0 -- -- 72
2019-12-05 17:00:00 9.9 18 Este 30 Este 0 -- -- 67
2019-12-05 16:00:00 11.8 16 Este 35 Este 0 -- -- 60
2019-12-05 15:00:00 11.9 19 Este 34 Este 0 -- -- 58
2019-12-05 14:00:00 10.9 17 Este 28 Este 0 -- -- 61
2019-12-05 13:00:00 11.9 12 Este 35 Este 0 -- -- 59
2019-12-05 12:00:00 10.8 19 Este 31 Este 0 -- -- 61
2019-12-05 11:00:00 9.9 12 Este 26 Este 0 -- -- 68
2019-12-05 10:00:00 6.9 2 Este 10 Este 0 -- -- 83
2019-12-05 09:00:00 6.2 5 Noroeste 10 Norte 0 -- -- 88
2019-12-05 08:00:00 5.9 3 Noroeste 12 Noroeste 0 -- -- 89
2019-12-05 07:00:00 5.9 5 Norte 9 Noroeste 0 -- -- 90
2019-12-05 06:00:00 5.9 3 Norte 10 Noroeste 0.6 -- -- 90
2019-12-05 05:00:00 6.8 3 Norte 12 Nordeste 0 -- -- 80
2019-12-05 04:00:00 6.3 4 Norte 15 Noroeste 0 -- -- 82
2019-12-05 03:00:00 6.4 9 Noroeste 16 Noroeste 0 -- -- 81
2019-12-05 02:00:00 6.7 5 Noroeste 15 Noroeste 0 -- -- 80
2019-12-05 01:00:00 6.6 4 Noroeste 8 Noroeste 0 -- -- 83
2019-12-05 00:00:00 6.1 4 Este 8 Este 0 -- -- 84
2019-12-04 23:00:00 6.6 4 Noroeste 9 Noroeste 0 -- -- 79
2019-12-04 22:00:00 6.7 5 Noroeste 9 Norte 0 -- -- 77
2019-12-04 21:00:00 8.3 5 Norte 13 Oeste 0 -- -- 70
2019-12-04 20:00:00 8.6 4 Noroeste 8 Noroeste 0 -- -- 74
2019-12-04 19:00:00 7.9 6 Noroeste 17 Oeste 0.2 -- -- 81
2019-12-04 18:00:00 8.7 3 Norte 19 Este 0 -- -- 80
2019-12-04 17:00:00 10.2 4 Este 20 Este 0 -- -- 69
2019-12-04 16:00:00 11.3 11 Este 25 Este 0 -- -- 61
2019-12-04 15:00:00 11.5 3 Noroeste 15 Oeste 0 -- -- 63
2019-12-04 14:00:00 9.8 10 Oeste 15 Oeste 0 -- -- 69
2019-12-04 13:00:00 8.8 5 Nordeste 12 Este 0 -- -- 77
2019-12-04 12:00:00 10.1 4 Este 12 Este 0 -- -- 71
2019-12-04 11:00:00 8 0 Calma 14 Nordeste 0 -- -- 80
2019-12-04 10:00:00 7.1 6 Nordeste 13 Nordeste 0 -- -- 81
2019-12-04 09:00:00 6.4 4 Este 13 Este 0 -- -- 85
2019-12-04 08:00:00 6.2 2 Noroeste 15 Nordeste 0 -- -- 83
2019-12-04 07:00:00 6.6 8 Este 24 Este 0 -- -- 80
2019-12-04 06:00:00 5.8 7 Nordeste 15 Este 0 -- -- 85
2019-12-04 05:00:00 4.8 3 Norte 10 Norte 0 -- -- 82
2019-12-04 04:00:00 4.4 3 Este 11 Nordeste 0 -- -- 82
2019-12-04 03:00:00 4.4 4 Norte 18 Este 0 -- -- 80
2019-12-04 02:00:00 4.9 10 Nordeste 22 Este 0 -- -- 74
2019-12-04 01:00:00 5.6 6 Nordeste 14 Nordeste 0 -- -- 71
2019-12-04 00:00:00 5.8 4 Este 11 Este 0 -- -- 71
2019-12-03 23:00:00 5.8 3 Sur 9 Este 0 -- -- 71
2019-12-03 22:00:00 5.5 0 Calma 13 Este 0 -- -- 73
2019-12-03 21:00:00 5.2 7 Este 22 Este 0 -- -- 73
2019-12-03 20:00:00 5.2 14 Este 27 Este 0 -- -- 73
2019-12-03 19:00:00 5.5 11 Este 20 Este 0 -- -- 74
2019-12-03 18:00:00 6.2 2 Sur 16 Sudeste 0 -- -- 72
2019-12-03 17:00:00 9.7 5 Sur 11 Sur 0 -- -- 54
2019-12-03 16:00:00 11.9 4 Sur 13 Sur 0 -- -- 47
2019-12-03 15:00:00 12.4 4 Sudoeste 10 Sur 0 -- -- 45
2019-12-03 14:00:00 11.3 4 Noroeste 13 Sudeste 0 -- -- 44
2019-12-03 13:00:00 9.9 6 Este 18 Este 0 -- -- 45
2019-12-03 12:00:00 7.6 11 Este 23 Este 0 -- -- 50
2019-12-03 11:00:00 5.8 13 Este 24 Este 0 -- -- 57
2019-12-03 10:00:00 5.3 3 Sudoeste 5 Sudoeste 0 -- -- 68
2019-12-03 09:00:00 1.4 2 Noroeste 7 Noroeste 0 -- -- 83
2019-12-03 08:00:00 0.4 3 Norte 8 Norte 0 -- -- 86
2019-12-03 07:00:00 2.4 5 Nordeste 12 Nordeste 0 -- -- 75
2019-12-03 06:00:00 0.7 3 Sudeste 6 Norte 0 -- -- 89
2019-12-03 05:00:00 0.6 0 Calma 6 Noroeste 0 -- -- 89
2019-12-03 04:00:00 1.7 2 Sur 9 Noroeste 0 -- -- 83
2019-12-03 03:00:00 2.4 3 Nordeste 6 Nordeste 0 -- -- 80
2019-12-03 02:00:00 2 3 Norte 10 Norte 0 -- -- 81
2019-12-03 01:00:00 2.6 2 Norte 11 Este 0 -- -- 81
2019-12-03 00:00:00 3.1 4 Noroeste 8 Norte 0 -- -- 80
2019-12-02 23:00:00 4.1 4 Noroeste 10 Norte 0 -- -- 76
2019-12-02 22:00:00 4.6 3 Nordeste 8 Este 0 -- -- 71
2019-12-02 21:00:00 5.6 4 Nordeste 8 Este 0 -- -- 68
2019-12-02 20:00:00 6 6 Nordeste 18 Este 0 -- -- 68
2019-12-02 19:00:00 6.5 10 Este 20 Este 0 -- -- 67
2019-12-02 18:00:00 7.8 10 Este 18 Este 0 -- -- 64
2019-12-02 17:00:00 8.8 10 Este 26 Este 0 -- -- 60
2019-12-02 16:00:00 10 18 Este 30 Este 0 -- -- 57
2019-12-02 15:00:00 10.4 13 Este 31 Este 0 -- -- 56
2019-12-02 14:00:00 10.5 13 Este 31 Este 0 -- -- 58
2019-12-02 13:00:00 9.9 14 Este 30 Este 0 -- -- 60
2019-12-02 12:00:00 7.4 10 Este 28 Este 0 -- -- 69
2019-12-02 11:00:00 8.4 15 Este 30 Sudeste 0 -- -- 62
2019-12-02 10:00:00 7.7 8 Este 24 Este 0 -- -- 63
2019-12-02 09:00:00 5.8 8 Este 17 Nordeste 0 -- -- 68
2019-12-02 08:00:00 3.4 3 Norte 16 Este 0 -- -- 80
2019-12-02 07:00:00 4.4 3 Norte 15 Este 0 -- -- 78
2019-12-02 06:00:00 4.1 5 Noroeste 11 Norte 0 -- -- 85
2019-12-02 05:00:00 4.8 5 Nordeste 14 Nordeste 0 -- -- 81
2019-12-02 04:00:00 5.5 6 Nordeste 12 Nordeste 0 -- -- 77
2019-12-02 03:00:00 5.7 5 Este 22 Este 0 -- -- 77
2019-12-02 02:00:00 6.1 10 Este 28 Este 0.2 -- -- 79
2019-12-02 01:00:00 5.4 14 Este 26 Nordeste 1.4 -- -- 90
2019-12-02 00:00:00 5.7 13 Este 32 Nordeste 0.6 -- -- 90
2019-12-01 23:00:00 5.8 8 Este 17 Este 0.2 -- -- 92
2019-12-01 22:00:00 5.6 5 Este 20 Nordeste 0.2 -- -- 92
2019-12-01 21:00:00 5.5 10 Este 21 Nordeste 0.8 -- -- 91
2019-12-01 20:00:00 4.8 3 Sur 12 Norte 1.4 -- -- 95
2019-12-01 19:00:00 5.4 5 Noroeste 13 Nordeste 1.8 -- -- 93
2019-12-01 18:00:00 5.4 0 Calma 10 Este 3.6 -- -- 96
2019-12-01 17:00:00 5.6 3 Este 10 Nordeste 1.6 -- -- 95
2019-12-01 16:00:00 5.6 5 Este 12 Nordeste 2 -- -- 94
2019-12-01 15:00:00 5.3 6 Este 20 Este 0.8 -- -- 95
2019-12-01 14:00:00 5.3 11 Este 21 Este 0.2 -- -- 93
2019-12-01 13:00:00 5.5 7 Este 14 Nordeste 0.2 -- -- 92
2019-12-01 12:00:00 5.1 4 Nordeste 16 Este 1.2 -- -- 95
2019-12-01 11:00:00 4.4 7 Este 17 Este 0 -- -- 94
2019-12-01 10:00:00 3.9 4 Noroeste 8 Sudoeste 0 -- -- 95
2019-12-01 09:00:00 2.8 4 Oeste 9 Sudoeste 0 -- -- 97
2019-12-01 08:00:00 2.8 0 Calma 6 Sur 0 -- -- 98
2019-12-01 07:00:00 2 2 Oeste 10 Norte 0 -- -- 98
2019-12-01 06:00:00 1.8 3 Noroeste 9 Este 0 -- -- 96
2019-12-01 05:00:00 1.6 3 Oeste 6 Sudoeste 0 -- -- 96
2019-12-01 04:00:00 2.2 2 Norte 6 Norte 0 -- -- 95
2019-12-01 03:00:00 2.6 2 Norte 6 Noroeste 0 -- -- 92
2019-12-01 02:00:00 4.5 0 Calma 15 Noroeste 0 -- -- 84
2019-12-01 01:00:00 5.8 8 Oeste 29 Noroeste 0 -- -- 82
2019-12-01 00:00:00 6.2 15 Noroeste 33 Noroeste 0 -- -- 80
2019-11-30 23:00:00 6.5 19 Oeste 31 Oeste 0.2 -- -- 79
2019-11-30 22:00:00 6.1 7 Oeste 34 Noroeste 0.6 -- -- 87
2019-11-30 21:00:00 6.6 18 Noroeste 39 Noroeste 0.6 -- -- 80
2019-11-30 20:00:00 8.3 19 Noroeste 33 Oeste 1.2 -- -- 80
2019-11-30 19:00:00 9.4 11 Oeste 25 Noroeste 0.8 -- -- 87
2019-11-30 18:00:00 9.4 15 Oeste 29 Oeste 1.2 -- -- 93
2019-11-30 17:00:00 10.5 8 Sudoeste 27 Sudoeste 0 -- -- 92
2019-11-30 16:00:00 11 8 Sudoeste 23 Sudoeste 0 -- -- 88
2019-11-30 15:00:00 11.7 12 Sudoeste 25 Sudoeste 0 -- -- 84
2019-11-30 14:00:00 14.2 12 Sudoeste 24 Sudoeste 0 -- -- 73
2019-11-30 13:00:00 12.1 10 Sudoeste 23 Oeste 0 -- -- 84
2019-11-30 12:00:00 13.4 8 Sudoeste 21 Sudoeste 0 -- -- 92
2019-11-30 11:00:00 10.9 0 Calma 4 Sudeste 0 -- -- 98
2019-11-30 10:00:00 9.8 3 Sur 6 Sur 0 -- -- 99
2019-11-30 09:00:00 9.3 0 Calma 4 Sur 0 -- -- 99
2019-11-30 08:00:00 9.2 0 Calma 3 Sur 0 -- -- 99
2019-11-30 07:00:00 9.3 0 Calma 3 Noroeste 0 -- -- 99
2019-11-30 06:00:00 8.9 0 Calma 3 Este 0 -- -- 99
2019-11-30 05:00:00 9.2 0 Calma 5 Este 0 -- -- 99
2019-11-30 04:00:00 9.6 0 Calma 9 Noroeste 0 -- -- 99
2019-11-30 03:00:00 9.6 4 Noroeste 9 Norte 0 -- -- 99
2019-11-30 02:00:00 9.7 0 Calma 4 Sur 0 -- -- 99
2019-11-30 01:00:00 9.7 3 Sudeste 7 Sudeste 0 -- -- 99
2019-11-30 00:00:00 9.8 0 Calma 6 Sudeste 0 -- -- 98
2019-11-29 23:00:00 10.2 0 Calma 4 Este 0 -- -- 98
2019-11-29 22:00:00 10.2 0 Calma 6 Sudoeste 0 -- -- 98
2019-11-29 21:00:00 10.6 3 Sur 6 Sur 0 -- -- 98
2019-11-29 20:00:00 10.7 0 Calma 6 Sudeste 0 -- -- 97
2019-11-29 19:00:00 11.2 3 Sur 8 Sudoeste 0 -- -- 97
2019-11-29 18:00:00 11.7 3 Sudeste 11 Sur 0 -- -- 96
2019-11-29 17:00:00 13 5 Sur 12 Sur 0 -- -- 92
2019-11-29 16:00:00 13.1 5 Sur 9 Sudeste 0.2 -- -- 92
2019-11-29 15:00:00 13.2 4 Sur 12 Sur 0 -- -- 91
2019-11-29 14:00:00 14.5 3 Sudoeste 13 Noroeste 0.2 -- -- 86
2019-11-29 13:00:00 13.2 3 Oeste 6 Noroeste 0 -- -- 90
2019-11-29 12:00:00 11.6 0 Calma 6 Sudeste 0.6 -- -- 96
2019-11-29 11:00:00 10.7 3 Oeste 5 Oeste 0.6 -- -- 97
2019-11-29 10:00:00 9.8 0 Calma 5 Noroeste 0 -- -- 97
2019-11-29 09:00:00 9.3 0 Calma 12 Sur 0 -- -- 97
2019-11-29 08:00:00 9.7 0 Calma 25 Oeste 0 -- -- 92
2019-11-29 07:00:00 11.9 14 Noroeste 24 Oeste 0.2 -- -- 84
2019-11-29 06:00:00 11.8 10 Noroeste 21 Oeste 0 -- -- 86
2019-11-29 05:00:00 11.2 9 Noroeste 25 Noroeste 0 -- -- 89
2019-11-29 04:00:00 9.1 2 Sudoeste 7 Sudeste 0 -- -- 97
2019-11-29 03:00:00 9 2 Este 6 Este 0 -- -- 97
2019-11-29 02:00:00 8.8 3 Este 6 Este 0.2 -- -- 97
2019-11-29 01:00:00 8.9 0 Calma 7 Este 0 -- -- 95
2019-11-29 00:00:00 8.8 0 Calma 5 Este 0 -- -- 95
2019-11-28 23:00:00 8.3 0 Calma 4 Nordeste 0 -- -- 95
2019-11-28 22:00:00 8.3 2 Sudoeste 5 Oeste 0 -- -- 95
2019-11-28 21:00:00 7.7 0 Calma 4 Nordeste 0 -- -- 95
2019-11-28 20:00:00 8 0 Calma 4 Este 0 -- -- 94
2019-11-28 19:00:00 8.5 0 Calma 5 Este 0 -- -- 92
2019-11-28 18:00:00 9.1 0 Calma 13 Sudoeste 0 -- -- 88
2019-11-28 17:00:00 9.8 6 Sur 18 Sur 0 -- -- 84
2019-11-28 16:00:00 10.2 8 Sur 18 Sudoeste 0 -- -- 84
2019-11-28 15:00:00 10.8 7 Sur 14 Sur 0 -- -- 78
2019-11-28 14:00:00 12.2 3 Sur 12 Sur 0 -- -- 74
2019-11-28 13:00:00 9 3 Sur 13 Oeste 0 -- -- 87
2019-11-28 12:00:00 8.9 6 Sur 13 Sudeste 0 -- -- 87
2019-11-28 11:00:00 8.1 5 Sur 17 Sudeste 0 -- -- 90
2019-11-28 10:00:00 7.2 4 Sur 12 Sudeste 0 -- -- 93
2019-11-28 09:00:00 6.5 3 Sudeste 6 Sudeste 0 -- -- 95
2019-11-28 08:00:00 5 0 Calma 9 Sur 0 -- -- 96
2019-11-28 07:00:00 5.8 2 Sudoeste 23 Oeste 0 -- -- 90
2019-11-28 06:00:00 9.7 15 Noroeste 27 Oeste 0 -- -- 72
2019-11-28 05:00:00 9.8 5 Oeste 18 Oeste 0 -- -- 71
2019-11-28 04:00:00 9.3 6 Sudoeste 18 Sudoeste 0 -- -- 73
2019-11-28 03:00:00 9.3 7 Sudoeste 15 Sudoeste 0 -- -- 73
2019-11-28 02:00:00 9.2 3 Sudoeste 15 Oeste 0 -- -- 73
2019-11-28 01:00:00 8.4 6 Sudoeste 14 Sudoeste 0 -- -- 79
2019-11-28 00:00:00 8 5 Oeste 12 Sudoeste 0 -- -- 84
2019-11-27 23:00:00 8.3 5 Sudoeste 14 Sudoeste 0 -- -- 83
2019-11-27 22:00:00 8.9 5 Sudoeste 15 Sudoeste 0 -- -- 80
2019-11-27 21:00:00 9.2 4 Sudoeste 22 Sudoeste 0 -- -- 79
2019-11-27 20:00:00 9.6 4 Sudoeste 24 Oeste 0 -- -- 75
2019-11-27 19:00:00 10.1 5 Oeste 18 Sudoeste 0 -- -- 71
2019-11-27 18:00:00 10.2 7 Sudoeste 19 Oeste 0 -- -- 71
2019-11-27 17:00:00 11.1 8 Oeste 26 Sudoeste 0 -- -- 68
2019-11-27 16:00:00 12.5 8 Oeste 30 Oeste 0 -- -- 61
2019-11-27 15:00:00 13.3 13 Oeste 26 Oeste 0 -- -- 50
2019-11-27 14:00:00 13.2 14 Oeste 30 Noroeste 0 -- -- 52
2019-11-27 06:00:00 -- -- -- -- -- -- -- -- --
2019-11-27 05:00:00 8.6 15 Noroeste 32 Noroeste 0 -- -- 77
2019-11-27 04:00:00 10.8 16 Oeste 33 Oeste 0 -- -- 68
2019-11-27 03:00:00 10.6 10 Oeste 27 Sudoeste 0 -- -- 77
2019-11-27 02:00:00 9.1 3 Sur 10 Sur 0 -- -- 97
2019-11-27 01:00:00 9 0 Calma 6 Sudoeste 0.4 -- -- 96
2019-11-27 00:00:00 9.5 3 Sudoeste 17 Sur 0 -- -- 95
2019-11-26 23:00:00 9.5 7 Sur 15 Sur 0 -- -- 96
2019-11-26 22:00:00 10 6 Sudeste 13 Sur 0 -- -- 98
2019-11-26 21:00:00 10.6 4 Sur 17 Sudoeste 0.2 -- -- 98
2019-11-26 20:00:00 10.6 8 Sudoeste 18 Sur 0.2 -- -- 97
2019-11-26 19:00:00 10.6 5 Sudoeste 19 Sudoeste 0 -- -- 95
2019-11-26 18:00:00 11 9 Sur 21 Sur 0 -- -- 91
2019-11-26 17:00:00 11.6 9 Sudoeste 19 Sudoeste 0 -- -- 88
2019-11-26 16:00:00 10.8 5 Oeste 18 Oeste 0 -- -- 96
2019-11-26 15:00:00 9.9 2 Noroeste 6 Este 0 -- -- 97
2019-11-26 14:00:00 9.5 2 Sudeste 6 Este 0 -- -- 96
2019-11-26 13:00:00 9.5 2 Sudeste 7 Este 0 -- -- 94
2019-11-26 12:00:00 10.1 6 Sudeste 12 Este 0 -- -- 87
2019-11-26 11:00:00 9.7 3 Sudeste 8 Sur 0 -- -- 89
2019-11-26 10:00:00 8.5 2 Sur 8 Sur 0 -- -- 95
2019-11-26 09:00:00 7.9 4 Este 10 Este 0 -- -- 95
2019-11-26 08:00:00 7.7 4 Este 6 Este 0 -- -- 94
2019-11-26 07:00:00 7.8 3 Nordeste 8 Este 0 -- -- 94
2019-11-26 06:00:00 6.6 4 Este 8 Este 0 -- -- 92
2019-11-26 05:00:00 6 2 Oeste 6 Norte 0 -- -- 91
2019-11-26 04:00:00 7 2 Noroeste 7 Norte 0 -- -- 87
2019-11-26 03:00:00 7.8 2 Noroeste 10 Sudeste 0 -- -- 84
2019-11-26 02:00:00 10.3 7 Noroeste 26 Oeste 0 -- -- 76
2019-11-26 01:00:00 11.1 19 Oeste 30 Oeste 0 -- -- 73
2019-11-26 00:00:00 10.7 7 Noroeste 22 Noroeste 0 -- -- 74
2019-11-25 23:00:00 11.3 14 Oeste 36 Oeste 0 -- -- 70
2019-11-25 22:00:00 11.6 14 Oeste 25 Oeste 0 -- -- 68
2019-11-25 21:00:00 11.7 7 Noroeste 27 Norte 0 -- -- 69
2019-11-25 20:00:00 11.4 5 Sudoeste 18 Oeste 0 -- -- 73
2019-11-25 19:00:00 11.9 5 Oeste 21 Oeste 0 -- -- 71
2019-11-25 18:00:00 12 8 Oeste 22 Noroeste 0 -- -- 68
2019-11-25 17:00:00 12.7 12 Oeste 24 Noroeste 0 -- -- 63
2019-11-25 16:00:00 13.4 8 Oeste 33 Oeste 0 -- -- 63
2019-11-25 15:00:00 14.2 15 Noroeste 35 Oeste 0 -- -- 57
2019-11-25 14:00:00 13.8 17 Oeste 43 Oeste 0 -- -- 59
2019-11-25 13:00:00 14.1 14 Noroeste 28 Noroeste 0 -- -- 57
2019-11-25 12:00:00 13.6 12 Oeste 33 Oeste 0 -- -- 62
2019-11-25 11:00:00 12 14 Noroeste 36 Oeste 0 -- -- 67
2019-11-25 10:00:00 11.4 19 Noroeste 33 Noroeste 0 -- -- 70
2019-11-25 09:00:00 11.1 16 Noroeste 31 Oeste 0 -- -- 72
2019-11-25 08:00:00 10.4 7 Oeste 14 Noroeste 0 -- -- 76
2019-11-25 07:00:00 11 8 Oeste 22 Sudoeste 0 -- -- 73
2019-11-25 06:00:00 7.4 3 Sur 12 Este 0.2 -- -- 97
2019-11-25 05:00:00 7.3 3 Sudoeste 7 Sudoeste 0 -- -- 96
2019-11-25 04:00:00 6.6 4 Este 9 Sudeste 0 -- -- 95
2019-11-25 03:00:00 6 3 Nordeste 6 Este 0 -- -- 94
2019-11-25 02:00:00 5.9 0 Calma 4 Este 0 -- -- 92
2019-11-25 01:00:00 6 3 Sudeste 5 Nordeste 0 -- -- 91
2019-11-25 00:00:00 5.9 3 Sudeste 6 Sudeste 0 -- -- 91
2019-11-24 23:00:00 6.2 2 Sur 9 Sudeste 0 -- -- 85
2019-11-24 22:00:00 6.3 3 Sudeste 8 Sur 0 -- -- 78
2019-11-24 21:00:00 7 0 Calma 5 Este 0 -- -- 83
2019-11-24 20:00:00 7.1 0 Calma 12 Noroeste 0 -- -- 84
2019-11-24 19:00:00 7.4 9 Oeste 15 Oeste 0 -- -- 79
2019-11-24 18:00:00 8.4 7 Noroeste 19 Noroeste 0 -- -- 68
2019-11-24 17:00:00 9.1 10 Noroeste 27 Oeste 0 -- -- 64
2019-11-24 16:00:00 10.2 15 Noroeste 24 Noroeste 0 -- -- 58
2019-11-24 15:00:00 9.1 12 Oeste 25 Noroeste 0 -- -- 60
2019-11-24 14:00:00 8.7 12 Oeste 37 Noroeste 0 -- -- 59
2019-11-24 13:00:00 8.3 11 Noroeste 35 Noroeste 0 -- -- 62
2019-11-24 12:00:00 7.3 26 Noroeste 40 Oeste 0 -- -- 62
2019-11-24 11:00:00 6.1 25 Noroeste 42 Noroeste 0 -- -- 68
2019-11-24 10:00:00 5.9 11 Noroeste 23 Oeste 0 -- -- 72
2019-11-24 09:00:00 4.8 12 Noroeste 35 Noroeste 0 -- -- 76
2019-11-24 08:00:00 4.7 19 Noroeste 38 Noroeste 0 -- -- 77
2019-11-24 07:00:00 5 20 Noroeste 43 Oeste 0 -- -- 77
2019-11-24 06:00:00 5.1 19 Noroeste 34 Noroeste 0 -- -- 78
2019-11-24 05:00:00 5.4 19 Noroeste 39 Noroeste 0 -- -- 77
2019-11-24 04:00:00 5.4 16 Noroeste 39 Noroeste 0 -- -- 80
2019-11-24 03:00:00 5.7 17 Noroeste 35 Noroeste 0 -- -- 78
2019-11-24 02:00:00 6 20 Oeste 42 Oeste 0 -- -- 77
2019-11-24 01:00:00 6.3 21 Oeste 45 Oeste 0 -- -- 74
2019-11-24 00:00:00 6.2 11 Oeste 39 Noroeste 0 -- -- 76
2019-11-23 23:00:00 6.3 15 Noroeste 34 Noroeste 0 -- -- 75
2019-11-23 22:00:00 6.6 19 Noroeste 42 Noroeste 0 -- -- 72
2019-11-23 21:00:00 6.9 27 Noroeste 55 Oeste 0 -- -- 67
2019-11-23 20:00:00 7 34 Noroeste 60 Oeste 0 -- -- 68
2019-11-23 19:00:00 7 30 Noroeste 50 Noroeste 0 -- -- 69
2019-11-23 18:00:00 7.4 25 Noroeste 48 Norte 0 -- -- 67
2019-11-23 17:00:00 8.7 20 Noroeste 36 Noroeste 0 -- -- 64
2019-11-23 16:00:00 9 20 Noroeste 58 Noroeste 0 -- -- 60
2019-11-23 15:00:00 8.7 27 Noroeste 45 Noroeste 0 -- -- 62
2019-11-23 14:00:00 7.8 18 Oeste 48 Noroeste 0 -- -- 64
2019-11-23 13:00:00 7.3 21 Noroeste 42 Oeste 0 -- -- 67
2019-11-23 12:00:00 6.4 15 Noroeste 51 Oeste 0 -- -- 71
2019-11-23 11:00:00 6.5 30 Noroeste 53 Noroeste 0 -- -- 70
2019-11-23 10:00:00 5.4 23 Noroeste 49 Noroeste 0 -- -- 74
2019-11-23 09:00:00 4.3 22 Oeste 52 Noroeste 0 -- -- 79
2019-11-23 08:00:00 4.5 16 Noroeste 44 Oeste 0 -- -- 76
2019-11-23 07:00:00 4.6 10 Oeste 59 Oeste 0 -- -- 79
2019-11-23 06:00:00 4.5 34 Noroeste 63 Oeste 1.4 -- -- 82
2019-11-23 05:00:00 4.2 24 Noroeste 57 Oeste 2 -- -- 87
2019-11-23 04:00:00 5.3 19 Oeste 43 Oeste 0 -- -- 79
2019-11-23 03:00:00 5.8 22 Noroeste 54 Oeste 0 -- -- 74
2019-11-23 02:00:00 6.2 23 Oeste 46 Noroeste 0 -- -- 77
2019-11-23 01:00:00 6.8 16 Oeste 37 Oeste 0.2 -- -- 80
2019-11-23 00:00:00 6.4 4 Sudoeste 18 Sudoeste 0.2 -- -- 96
2019-11-22 23:00:00 6.9 8 Sudoeste 18 Sudoeste 0 -- -- 95
2019-11-22 22:00:00 7.8 6 Sudoeste 14 Sudoeste 0 -- -- 91
2019-11-22 21:00:00 8.2 7 Oeste 23 Noroeste 0 -- -- 81
2019-11-22 20:00:00 7.9 3 Noroeste 20 Sudoeste 0 -- -- 99
2019-11-22 19:00:00 8.1 4 Sudoeste 12 Sur 0 -- -- 99
2019-11-22 18:00:00 8.8 6 Sur 14 Sudeste 0 -- -- 99
2019-11-22 17:00:00 9.3 3 Sudeste 11 Sudeste 0 -- -- 99
2019-11-22 16:00:00 9 3 Sudeste 10 Norte 0.4 -- -- 99
2019-11-22 15:00:00 8.8 0 Calma 10 Sudeste 1.6 -- -- 99
2019-11-22 14:00:00 8.1 5 Sudeste 10 Sudeste 3.2 -- -- 99
2019-11-22 13:00:00 7.5 0 Calma 14 Sudeste 4.2 -- -- 99
2019-11-22 12:00:00 7.3 7 Sudeste 22 Sur 2 -- -- 99
2019-11-22 11:00:00 6.8 6 Sur 15 Sudeste 1 -- -- 99
2019-11-22 10:00:00 6.2 6 Sudeste 14 Sudeste 1.4 -- -- 99
2019-11-22 09:00:00 5.9 5 Sudeste 13 Sur 1.8 -- -- 99
2019-11-22 08:00:00 5.7 3 Sudeste 12 Sudeste 1.2 -- -- 99
2019-11-22 07:00:00 5.6 5 Sudeste 18 Sudeste 0.6 -- -- 99
2019-11-22 06:00:00 5.5 6 Sudeste 12 Sudeste 0.8 -- -- 98
2019-11-22 05:00:00 5.3 3 Sudeste 5 Noroeste 0.8 -- -- 97
2019-11-22 04:00:00 4.9 3 Nordeste 7 Este 0.2 -- -- 97
2019-11-22 03:00:00 4.9 2 Noroeste 4 Noroeste 0.6 -- -- 96
2019-11-22 02:00:00 5.1 0 Calma 3 Nordeste 0 -- -- 96
2019-11-22 01:00:00 5.1 2 Este 4 Este 0 -- -- 96
2019-11-22 00:00:00 5.2 0 Calma 7 Sudeste 0 -- -- 97
2019-11-21 23:00:00 5.2 4 Este 6 Este 0 -- -- 97
2019-11-21 22:00:00 5.3 0 Calma 6 Noroeste 0 -- -- 97
2019-11-21 21:00:00 5.3 3 Oeste 7 Sudoeste 0 -- -- 96
2019-11-21 20:00:00 5.8 4 Sudeste 7 Sudeste 0 -- -- 95
2019-11-21 19:00:00 5.9 0 Calma 5 Sur 0 -- -- 94
2019-11-21 18:00:00 6.4 3 Este 6 Sudeste 0.2 -- -- 93
2019-11-21 17:00:00 6.8 3 Sur 11 Sudeste 0 -- -- 89
2019-11-21 16:00:00 6.7 5 Sur 12 Sudeste 0 -- -- 90
2019-11-21 15:00:00 6.7 3 Sur 12 Sudoeste 0 -- -- 91
2019-11-21 14:00:00 7.2 4 Sudoeste 10 Sur 0 -- -- 84
2019-11-21 13:00:00 8.4 3 Sur 8 Sur 0 -- -- 78
2019-11-21 12:00:00 6.1 2 Sudoeste 6 Sudoeste 0 -- -- 90
2019-11-21 11:00:00 4.6 3 Sudeste 5 Sudeste 0 -- -- 94
2019-11-21 10:00:00 3.7 0 Calma 3 Noroeste 0 -- -- 96
2019-11-21 09:00:00 2.8 0 Calma 5 Norte 0 -- -- 97
2019-11-21 08:00:00 2.1 2 Noroeste 5 Noroeste 0 -- -- 97
2019-11-21 07:00:00 1.8 2 Noroeste 4 Noroeste 0 -- -- 97
2019-11-21 06:00:00 1.4 0 Calma 9 Norte 0 -- -- 97
2019-11-21 05:00:00 1 0 Calma 4 Sudeste 0 -- -- 96
2019-11-21 04:00:00 1.9 2 Noroeste 5 Norte 0 -- -- 94
2019-11-21 03:00:00 3 0 Calma 9 Noroeste 0 -- -- 94
2019-11-21 02:00:00 3.3 2 Noroeste 6 Sudoeste 0 -- -- 95
2019-11-21 01:00:00 3.2 0 Calma 5 Sudoeste 0 -- -- 96
2019-11-21 00:00:00 3.1 0 Calma 3 Este 0 -- -- 95
2019-11-20 23:00:00 3.2 0 Calma 6 Norte 0 -- -- 95
2019-11-20 22:00:00 3.2 2 Norte 5 Sudoeste 0 -- -- 95
2019-11-20 21:00:00 3.2 2 Sudoeste 5 Oeste 0 -- -- 95
2019-11-20 20:00:00 3.2 2 Sudeste 6 Sudeste 0 -- -- 94
2019-11-20 19:00:00 3.2 0 Calma 6 Norte 0 -- -- 94
2019-11-20 18:00:00 3.1 3 Noroeste 5 Sudoeste 0.6 -- -- 93
2019-11-20 17:00:00 3.6 2 Oeste 9 Sudoeste 1.4 -- -- 92
2019-11-20 16:00:00 4.1 4 Sudoeste 10 Sudeste 1.6 -- -- 91
2019-11-20 15:00:00 5 4 Sur 13 Sur 0 -- -- 85
2019-11-20 14:00:00 6.3 5 Sudeste 14 Sur 0 -- -- 75
2019-11-20 13:00:00 6.4 5 Sur 12 Sur 0 -- -- 74
2019-11-20 12:00:00 7 3 Sudeste 8 Sudeste 0 -- -- 72
2019-11-20 11:00:00 6 0 Calma 4 Sur 0 -- -- 76
2019-11-20 10:00:00 4.3 0 Calma 4 Este 0 -- -- 84
2019-11-20 09:00:00 2.2 2 Sur 4 Sur 0 -- -- 91
2019-11-20 08:00:00 2.1 0 Calma 6 Noroeste 0 -- -- 92
2019-11-20 07:00:00 1.2 0 Calma 4 Noroeste 0 -- -- 93
2019-11-20 06:00:00 1.1 0 Calma 4 Norte 0 -- -- 93
2019-11-20 05:00:00 1.7 2 Noroeste 5 Norte 0 -- -- 91
2019-11-20 04:00:00 2.2 0 Calma 5 Noroeste 0 -- -- 90
2019-11-20 03:00:00 2.2 0 Calma 4 Norte 0 -- -- 90
2019-11-20 02:00:00 2.4 0 Calma 6 Norte 0 -- -- 90
2019-11-20 01:00:00 2.3 2 Noroeste 4 Este 0 -- -- 90
2019-11-20 00:00:00 2.7 0 Calma 3 Norte 0 -- -- 88
2019-11-19 23:00:00 2.8 0 Calma 6 Noroeste 0 -- -- 88
2019-11-19 22:00:00 2.9 2 Noroeste 4 Sudeste 0 -- -- 87
2019-11-19 21:00:00 3.6 0 Calma 4 Norte 0 -- -- 84
2019-11-19 20:00:00 4.2 2 Norte 6 Norte 0 -- -- 82
2019-11-19 19:00:00 5.3 0 Calma 8 Sudeste 0 -- -- 75
2019-11-19 18:00:00 6 4 Sudeste 9 Sur 0 -- -- 71
2019-11-19 17:00:00 7.4 4 Sur 10 Sur 0 -- -- 65
2019-11-19 16:00:00 8.2 5 Sur 12 Sudeste 0 -- -- 60
2019-11-19 15:00:00 8.6 4 Sur 13 Sudeste 0 -- -- 61
2019-11-19 14:00:00 9 6 Sudeste 18 Este 0 -- -- 61
2019-11-19 13:00:00 8.5 7 Sur 17 Sur 0 -- -- 60
2019-11-19 12:00:00 9.7 5 Sur 13 Sur 0 -- -- 57
2019-11-19 11:00:00 8.5 4 Este 10 Sudeste 0 -- -- 60
2019-11-19 10:00:00 6.8 5 Sudeste 8 Sudeste 0 -- -- 66
2019-11-19 09:00:00 4.5 2 Noroeste 10 Norte 0 -- -- 73
2019-11-19 08:00:00 0.1 0 Calma 5 Norte 0 -- -- 86
2019-11-19 07:00:00 0.2 4 Norte 8 Noroeste 0 -- -- 84
2019-11-19 06:00:00 0.5 4 Nordeste 9 Este 0 -- -- 85
2019-11-19 05:00:00 1.1 5 Nordeste 9 Noroeste 0 -- -- 81
2019-11-19 04:00:00 1.3 3 Norte 14 Noroeste 0 -- -- 81
2019-11-19 03:00:00 1.9 4 Norte 10 Norte 0 -- -- 79
2019-11-19 02:00:00 1.3 3 Norte 8 Norte 0 -- -- 77
2019-11-19 01:00:00 1.6 3 Norte 9 Noroeste 0 -- -- 79
2019-11-19 00:00:00 3.5 4 Nordeste 16 Norte 0 -- -- 71
2019-11-18 23:00:00 4.2 6 Noroeste 22 Oeste 0 -- -- 72
2019-11-18 22:00:00 4.4 9 Noroeste 26 Noroeste 0 -- -- 73
2019-11-18 21:00:00 4.8 15 Noroeste 27 Noroeste 0 -- -- 75
2019-11-18 20:00:00 5.1 10 Noroeste 27 Norte 0 -- -- 68
2019-11-18 19:00:00 5.4 15 Noroeste 28 Norte 0 -- -- 68
2019-11-18 18:00:00 6.1 16 Noroeste 29 Noroeste 0 -- -- 62
2019-11-18 17:00:00 7.5 14 Noroeste 35 Noroeste 0 -- -- 57
2019-11-18 16:00:00 8.6 17 Noroeste 44 Norte 0 -- -- 50
2019-11-18 15:00:00 8.5 18 Noroeste 40 Norte 0 -- -- 55
2019-11-18 14:00:00 8.6 21 Noroeste 51 Noroeste 0 -- -- 52
2019-11-18 13:00:00 8.6 14 Norte 35 Noroeste 0 -- -- 52
2019-11-18 12:00:00 7.4 17 Noroeste 49 Noroeste 0 -- -- 60
2019-11-18 11:00:00 6.8 19 Noroeste 41 Norte 0 -- -- 65
2019-11-18 10:00:00 6.9 11 Noroeste 24 Norte 0 -- -- 64
2019-11-18 09:00:00 6 4 Norte 18 Norte 0 -- -- 65
2019-11-18 08:00:00 4.3 9 Noroeste 32 Noroeste 0 -- -- 72
2019-11-18 07:00:00 3.2 8 Oeste 34 Norte 0 -- -- 82
2019-11-18 06:00:00 3.6 18 Noroeste 34 Noroeste 0 -- -- 82
2019-11-18 05:00:00 3.1 9 Noroeste 17 Oeste 0 -- -- 89
2019-11-18 04:00:00 3.1 8 Noroeste 23 Noroeste 0.2 -- -- 91
2019-11-18 03:00:00 3.7 10 Noroeste 23 Noroeste 0 -- -- 86
2019-11-18 02:00:00 4.4 12 Noroeste 28 Noroeste 0 -- -- 80
2019-11-18 01:00:00 4.8 15 Noroeste 34 Noroeste 0 -- -- 78
2019-11-18 00:00:00 4.8 22 Oeste 42 Noroeste 0 -- -- 78
2019-11-17 23:00:00 5.6 18 Oeste 33 Oeste 0 -- -- 78
2019-11-17 22:00:00 6.1 15 Noroeste 44 Noroeste 0 -- -- 79
2019-11-17 21:00:00 6.9 19 Noroeste 36 Noroeste 0 -- -- 79
2019-11-17 20:00:00 7.4 18 Oeste 30 Oeste 0.2 -- -- 80
2019-11-17 19:00:00 6.6 10 Oeste 30 Noroeste 0.8 -- -- 88
2019-11-17 18:00:00 7.3 13 Oeste 34 Noroeste 0.6 -- -- 85
2019-11-17 17:00:00 7.7 4 Sudoeste 19 Oeste 0.2 -- -- 90
2019-11-17 16:00:00 6.8 3 Oeste 21 Sudeste 0.2 -- -- 93
2019-11-17 15:00:00 5.5 4 Sur 9 Este 1 -- -- 93
2019-11-17 14:00:00 5.6 3 Sur 13 Sur 0.4 -- -- 83
2019-11-17 13:00:00 5.4 5 Sudeste 14 Sudoeste 0 -- -- 78
2019-11-17 12:00:00 5.8 5 Sudeste 12 Sudeste 0 -- -- 74
2019-11-17 11:00:00 5.7 2 Este 6 Este 0 -- -- 80
2019-11-17 10:00:00 4.4 0 Calma 5 Norte 0 -- -- 86
2019-11-17 09:00:00 3.8 0 Calma 7 Sur 0 -- -- 79
2019-11-17 08:00:00 3.4 0 Calma 22 Noroeste 0 -- -- 81
2019-11-17 07:00:00 4.1 12 Noroeste 22 Oeste 0 -- -- 80
2019-11-17 06:00:00 4 9 Noroeste 17 Noroeste 0 -- -- 77
2019-11-17 05:00:00 3.7 11 Noroeste 19 Noroeste 0 -- -- 77
2019-11-17 04:00:00 3.5 12 Noroeste 31 Noroeste 0 -- -- 75
2019-11-17 03:00:00 3.4 18 Noroeste 30 Noroeste 0 -- -- 73
2019-11-17 02:00:00 3.6 13 Noroeste 28 Oeste 0 -- -- 72
2019-11-17 01:00:00 3.8 12 Oeste 24 Noroeste 0 -- -- 72
2019-11-17 00:00:00 3.8 12 Noroeste 26 Noroeste 0 -- -- 71
2019-11-16 23:00:00 3.4 14 Noroeste 30 Noroeste 0 -- -- 71
2019-11-16 22:00:00 3.6 5 Noroeste 27 Noroeste 0 -- -- 70
2019-11-16 21:00:00 3.9 13 Noroeste 24 Oeste 0 -- -- 73
2019-11-16 20:00:00 4.4 15 Noroeste 32 Noroeste 0 -- -- 72
2019-11-16 19:00:00 4.6 9 Oeste 21 Oeste 0 -- -- 64
2019-11-16 18:00:00 5.3 6 Oeste 26 Noroeste 0 -- -- 64
2019-11-16 17:00:00 7.2 13 Noroeste 31 Noroeste 0 -- -- 55
2019-11-16 16:00:00 7.2 16 Noroeste 35 Noroeste 0 -- -- 56
2019-11-16 15:00:00 6.5 18 Noroeste 35 Noroeste 0 -- -- 57
2019-11-16 14:00:00 6.7 20 Noroeste 43 Noroeste 0 -- -- 53
2019-11-16 13:00:00 5.8 22 Noroeste 44 Oeste 0 -- -- 59
2019-11-16 12:00:00 4.6 27 Noroeste 49 Oeste 0 -- -- 65
2019-11-16 11:00:00 4.9 14 Oeste 30 Oeste 0 -- -- 63
2019-11-16 10:00:00 4.1 9 Oeste 29 Noroeste 0 -- -- 67
2019-11-16 09:00:00 3.2 6 Oeste 27 Noroeste 0 -- -- 67
2019-11-16 08:00:00 1.6 17 Noroeste 35 Noroeste 0 -- -- 75
2019-11-16 07:00:00 1.5 16 Oeste 28 Noroeste 0 -- -- 79
2019-11-16 06:00:00 1.6 17 Oeste 29 Oeste 0 -- -- 79
2019-11-16 05:00:00 1.6 6 Sudoeste 22 Noroeste 0 -- -- 82
2019-11-16 04:00:00 2 9 Noroeste 25 Noroeste 0 -- -- 76
2019-11-16 03:00:00 2.4 14 Noroeste 30 Noroeste 0 -- -- 74
2019-11-16 02:00:00 2.6 14 Noroeste 24 Noroeste 0 -- -- 75
2019-11-16 01:00:00 2.7 9 Noroeste 28 Noroeste 0 -- -- 77
2019-11-16 00:00:00 2.5 9 Noroeste 21 Noroeste 0 -- -- 81
2019-11-15 23:00:00 2.3 15 Noroeste 31 Noroeste 0 -- -- 83
2019-11-15 22:00:00 3.4 19 Noroeste 38 Oeste 0 -- -- 75
2019-11-15 21:00:00 4 18 Noroeste 44 Noroeste 0 -- -- 72
2019-11-15 20:00:00 4.4 20 Noroeste 38 Oeste 0 -- -- 69
2019-11-15 19:00:00 4.6 15 Noroeste 27 Oeste 0 -- -- 67
2019-11-15 18:00:00 4.8 12 Oeste 26 Oeste 0 -- -- 65
2019-11-15 17:00:00 5.1 18 Noroeste 29 Noroeste 0 -- -- 63
2019-11-15 16:00:00 5.4 17 Noroeste 32 Oeste 0 -- -- 61
2019-11-15 15:00:00 4.7 18 Noroeste 37 Oeste 0 -- -- 67
2019-11-15 14:00:00 4.5 14 Noroeste 28 Oeste 0 -- -- 66
2019-11-15 13:00:00 3.7 13 Noroeste 23 Oeste 0 -- -- 73
2019-11-15 12:00:00 3.1 10 Noroeste 44 Oeste 0 -- -- 80
2019-11-15 11:00:00 2.9 23 Noroeste 41 Noroeste 0 -- -- 84
2019-11-15 10:00:00 1.5 16 Noroeste 30 Noroeste 0 -- -- 87
2019-11-15 09:00:00 1.6 14 Noroeste 32 Noroeste 0 -- -- 86
2019-11-15 08:00:00 1.5 17 Noroeste 31 Noroeste 0 -- -- 88
2019-11-15 07:00:00 2 12 Noroeste 32 Noroeste 0 -- -- 84
2019-11-15 06:00:00 2.4 17 Noroeste 32 Noroeste 0 -- -- 80
2019-11-15 05:00:00 2.2 17 Noroeste 44 Oeste 0 -- -- 82
2019-11-15 04:00:00 2.5 22 Oeste 37 Noroeste 0.2 -- -- 81
2019-11-15 03:00:00 2.1 16 Oeste 46 Noroeste 0 -- -- 85
2019-11-15 02:00:00 2 23 Noroeste 51 Noroeste 0.4 -- -- 88
2019-11-15 01:00:00 2.4 20 Noroeste 47 Noroeste 0.4 -- -- 87
2019-11-15 00:00:00 2.9 23 Noroeste 46 Oeste 0.2 -- -- 81
2019-11-14 23:00:00 3.7 25 Noroeste 48 Oeste 0.6 -- -- 75
2019-11-14 22:00:00 3.9 28 Noroeste 53 Oeste 0 -- -- 76
2019-11-14 21:00:00 4.4 23 Noroeste 72 Noroeste 0 -- -- 73
2019-11-14 20:00:00 4.8 28 Noroeste 65 Oeste 0.2 -- -- 68
2019-11-14 19:00:00 4.9 28 Oeste 64 Oeste 0.2 -- -- 70
2019-11-14 18:00:00 4.2 24 Oeste 52 Oeste 0.4 -- -- 79
2019-11-14 17:00:00 4 11 Oeste 35 Noroeste 0.8 -- -- 87
2019-11-14 16:00:00 4 24 Oeste 47 Oeste 0 -- -- 79
2019-11-14 15:00:00 7.2 17 Oeste 40 Oeste 0 -- -- 56
2019-11-14 14:00:00 6.8 18 Oeste 40 Oeste 0 -- -- 56
2019-11-14 13:00:00 6.3 23 Oeste 41 Noroeste 0 -- -- 61
2019-11-14 12:00:00 5.3 19 Noroeste 44 Oeste 0 -- -- 65
2019-11-14 11:00:00 5 23 Noroeste 48 Oeste 0 -- -- 68
2019-11-14 10:00:00 4.4 20 Noroeste 41 Noroeste 0 -- -- 73
2019-11-14 09:00:00 2.6 19 Noroeste 44 Noroeste 0.6 -- -- 85
2019-11-14 08:00:00 2.8 23 Noroeste 50 Noroeste 1 -- -- 87
2019-11-14 07:00:00 2.9 22 Noroeste 63 Oeste 1.2 -- -- 87
2019-11-14 06:00:00 7.5 19 Oeste 35 Oeste 0 -- -- 75
2019-11-14 05:00:00 8.4 17 Oeste 41 Oeste 0 -- -- 66
2019-11-14 04:00:00 7.4 12 Noroeste 43 Oeste 0 -- -- 67
2019-11-14 03:00:00 7.3 21 Noroeste 39 Noroeste 0 -- -- 68
2019-11-14 02:00:00 7.5 24 Noroeste 43 Oeste 0 -- -- 68
2019-11-14 01:00:00 8.3 20 Noroeste 49 Oeste 0 -- -- 70
2019-11-14 00:00:00 9.6 10 Noroeste 23 Oeste 0 -- -- 71
2019-11-13 23:00:00 9.8 5 Oeste 17 Noroeste 0 -- -- 73
2019-11-13 22:00:00 10.2 5 Sudoeste 15 Oeste 0 -- -- 72
2019-11-13 21:00:00 10.4 8 Oeste 18 Oeste 0 -- -- 71
2019-11-13 20:00:00 10.9 7 Oeste 15 Sudoeste 0 -- -- 70
2019-11-13 19:00:00 11.4 4 Noroeste 28 Noroeste 0 -- -- 68
2019-11-13 18:00:00 11.6 17 Noroeste 24 Oeste 0 -- -- 64
2019-11-13 17:00:00 12.6 14 Noroeste 27 Noroeste 0 -- -- 60
2019-11-13 16:00:00 13.1 15 Noroeste 33 Oeste 0 -- -- 56
2019-11-13 15:00:00 12.8 21 Oeste 39 Noroeste 0 -- -- 57
2019-11-13 14:00:00 14 12 Oeste 27 Oeste 0 -- -- 50
2019-11-13 13:00:00 14.4 10 Noroeste 29 Norte 0 -- -- 48
2019-11-13 12:00:00 14.1 9 Norte 44 Norte 0 -- -- 49
2019-11-13 11:00:00 12 26 Noroeste 64 Norte 0 -- -- 57
2019-11-13 10:00:00 10.7 33 Noroeste 63 Noroeste 0.6 -- -- 69
2019-11-13 09:00:00 11.3 24 Noroeste 46 Noroeste 1 -- -- 80
2019-11-13 08:00:00 11.1 29 Noroeste 60 Noroeste 0.4 -- -- 84
2019-11-13 07:00:00 10.9 19 Noroeste 41 Oeste 3.6 -- -- 87
2019-11-13 06:00:00 10.7 19 Noroeste 52 Oeste 4.2 -- -- 90
2019-11-13 05:00:00 11.7 24 Noroeste 59 Oeste 0.2 -- -- 83
2019-11-13 04:00:00 11.1 19 Oeste 33 Oeste 0.4 -- -- 86
2019-11-13 03:00:00 8.8 6 Este 25 Oeste 4.2 -- -- 99
2019-11-13 02:00:00 8.2 4 Sudoeste 27 Sur 2.4 -- -- 95
2019-11-13 01:00:00 8.3 12 Sudoeste 29 Sur 0.6 -- -- 93
2019-11-13 00:00:00 7.9 5 Sudoeste 15 Sudoeste 3 -- -- 96
2019-11-12 23:00:00 7.6 2 Nordeste 13 Sudeste 3.4 -- -- 96
2019-11-12 22:00:00 7.1 2 Sudeste 11 Noroeste 2.2 -- -- 95
2019-11-12 21:00:00 6.8 0 Calma 10 Sudeste 0.8 -- -- 92
2019-11-12 20:00:00 6.9 5 Noroeste 24 Norte 0 -- -- 88
2019-11-12 19:00:00 7.7 18 Noroeste 32 Noroeste 0 -- -- 75
2019-11-12 18:00:00 8.9 14 Noroeste 29 Noroeste 0 -- -- 61
2019-11-12 17:00:00 10.1 20 Noroeste 39 Oeste 0 -- -- 55
2019-11-12 16:00:00 9.2 13 Noroeste 31 Noroeste 0 -- -- 58
2019-11-12 15:00:00 8.4 15 Noroeste 35 Noroeste 0 -- -- 61
2019-11-12 14:00:00 8.1 19 Noroeste 32 Oeste 0 -- -- 62
2019-11-12 13:00:00 8.1 5 Norte 20 Oeste 0 -- -- 59
2019-11-12 12:00:00 9.1 6 Noroeste 20 Norte 0 -- -- 57
2019-11-12 11:00:00 7.6 6 Oeste 18 Oeste 0 -- -- 66
2019-11-12 10:00:00 6.9 10 Oeste 21 Noroeste 0 -- -- 69
2019-11-12 09:00:00 4.4 13 Noroeste 23 Noroeste 0 -- -- 80
2019-11-12 08:00:00 3.3 10 Noroeste 18 Noroeste 0 -- -- 79
2019-11-12 07:00:00 4.1 12 Noroeste 18 Noroeste 0 -- -- 74
2019-11-12 06:00:00 3.7 8 Noroeste 17 Noroeste 0 -- -- 80
2019-11-12 05:00:00 3.9 7 Noroeste 14 Noroeste 0 -- -- 79
2019-11-12 04:00:00 4.2 8 Noroeste 13 Noroeste 0 -- -- 78
2019-11-12 03:00:00 4.4 7 Noroeste 11 Noroeste 0 -- -- 79
2019-11-12 02:00:00 5 5 Noroeste 14 Noroeste 0 -- -- 76
2019-11-12 01:00:00 4.7 2 Noroeste 11 Norte 0 -- -- 75
2019-11-12 00:00:00 6.6 8 Norte 22 Noroeste 0 -- -- 64
2019-11-11 23:00:00 6.8 10 Norte 16 Norte 0 -- -- 66
2019-11-11 22:00:00 7.3 5 Noroeste 16 Nordeste 0 -- -- 66
2019-11-11 21:00:00 8.3 6 Noroeste 16 Norte 0 -- -- 63
2019-11-11 20:00:00 8.6 4 Norte 11 Norte 0 -- -- 66
2019-11-11 19:00:00 9.3 6 Norte 24 Nordeste 0 -- -- 63
2019-11-11 18:00:00 10 11 Norte 28 Norte 0 -- -- 61
2019-11-11 17:00:00 10.6 12 Norte 27 Noroeste 0 -- -- 63
2019-11-11 16:00:00 12 14 Noroeste 43 Noroeste 0 -- -- 61
2019-11-11 15:00:00 12.6 15 Norte 30 Norte 0 -- -- 67
2019-11-11 14:00:00 11 15 Oeste 31 Oeste 0 -- -- 83
2019-11-11 13:00:00 9 17 Oeste 30 Oeste 0 -- -- 90
2019-11-11 12:00:00 7.6 8 Oeste 14 Noroeste 0 -- -- 91
2019-11-11 11:00:00 7.2 3 Oeste 11 Sudoeste 0 -- -- 88
2019-11-11 10:00:00 5.8 4 Oeste 10 Oeste 0 -- -- 86
2019-11-11 09:00:00 5.1 6 Oeste 12 Noroeste 0 -- -- 87
2019-11-11 08:00:00 4.8 2 Oeste 21 Noroeste 0 -- -- 88
2019-11-11 07:00:00 5 12 Oeste 19 Noroeste 0 -- -- 85
2019-11-11 06:00:00 4.6 9 Oeste 17 Noroeste 0 -- -- 86
2019-11-11 05:00:00 3.8 4 Noroeste 14 Noroeste 0 -- -- 88
2019-11-11 04:00:00 3.8 3 Oeste 11 Oeste 0 -- -- 88
2019-11-11 03:00:00 3.8 5 Noroeste 18 Noroeste 0 -- -- 88
2019-11-11 02:00:00 4.6 8 Noroeste 25 Oeste 0 -- -- 83
2019-11-11 01:00:00 4.7 3 Oeste 9 Oeste 0 -- -- 84
2019-11-11 00:00:00 4.5 3 Oeste 15 Sudeste 0 -- -- 81
2019-11-10 23:00:00 4.8 2 Sur 8 Sudoeste 0 -- -- 79
2019-11-10 22:00:00 5 0 Calma 10 Norte 0 -- -- 77
2019-11-10 21:00:00 5.2 3 Oeste 10 Noroeste 0 -- -- 78
2019-11-10 20:00:00 5.1 5 Norte 16 Noroeste 0 -- -- 78
2019-11-10 19:00:00 4.7 5 Noroeste 26 Norte 0.2 -- -- 82
2019-11-10 18:00:00 4.7 8 Norte 31 Noroeste 0.4 -- -- 81
2019-11-10 17:00:00 5.8 12 Noroeste 38 Oeste 0.8 -- -- 74
2019-11-10 16:00:00 5.2 19 Noroeste 35 Noroeste 0.8 -- -- 83
2019-11-10 15:00:00 4.1 10 Noroeste 35 Oeste 1.8 -- -- 88
2019-11-10 14:00:00 5 15 Noroeste 40 Oeste 0.6 -- -- 79
2019-11-10 13:00:00 4.6 14 Noroeste 36 Noroeste 0.4 -- -- 82
2019-11-10 12:00:00 5.4 14 Noroeste 32 Oeste 0 -- -- 72
2019-11-10 11:00:00 5.4 14 Noroeste 30 Norte 0 -- -- 71
2019-11-10 10:00:00 4.7 17 Noroeste 31 Oeste 0 -- -- 70
2019-11-10 09:00:00 4.2 18 Noroeste 33 Noroeste 0 -- -- 73
2019-11-10 08:00:00 3.4 13 Noroeste 32 Noroeste 0 -- -- 75
2019-11-10 07:00:00 4.2 14 Noroeste 33 Noroeste 0 -- -- 65
2019-11-10 06:00:00 4.3 16 Noroeste 38 Noroeste 0 -- -- 65
2019-11-10 05:00:00 5 18 Noroeste 40 Noroeste 0 -- -- 63
2019-11-10 04:00:00 5.4 20 Noroeste 43 Noroeste 0 -- -- 65
2019-11-10 03:00:00 6.3 21 Noroeste 40 Oeste 0 -- -- 64
2019-11-10 02:00:00 6.7 22 Noroeste 48 Oeste 0 -- -- 73
2019-11-10 01:00:00 7 23 Noroeste 54 Oeste 0 -- -- 72
2019-11-10 00:00:00 7.1 24 Noroeste 48 Noroeste 0 -- -- 75
2019-11-09 23:00:00 7.7 30 Noroeste 59 Noroeste 0 -- -- 74
2019-11-09 22:00:00 8.2 31 Noroeste 58 Noroeste 0 -- -- 76
2019-11-09 21:00:00 8.2 19 Noroeste 45 Noroeste 0 -- -- 81
2019-11-09 20:00:00 7.7 8 Oeste 21 Noroeste 0 -- -- 95
2019-11-09 19:00:00 7.1 4 Oeste 13 Sudeste 0 -- -- 97
2019-11-09 18:00:00 5 6 Sur 18 Sur 0.8 -- -- 97
2019-11-09 17:00:00 4.9 7 Sur 17 Sur 1.4 -- -- 96
2019-11-09 16:00:00 5.8 5 Sur 14 Sudoeste 1 -- -- 94
2019-11-09 15:00:00 6.4 5 Sur 14 Sur 0 -- -- 92
2019-11-09 14:00:00 7.8 6 Noroeste 16 Norte 0 -- -- 82
2019-11-09 13:00:00 8.7 10 Noroeste 27 Noroeste 0 -- -- 72
2019-11-09 12:00:00 8.1 16 Noroeste 35 Oeste 0 -- -- 69
2019-11-09 11:00:00 6.3 24 Noroeste 39 Noroeste 0 -- -- 68
2019-11-09 10:00:00 6 21 Oeste 37 Noroeste 0 -- -- 70
2019-11-09 09:00:00 4.8 18 Noroeste 32 Noroeste 0 -- -- 75
2019-11-09 08:00:00 4.2 18 Noroeste 34 Noroeste 0 -- -- 77
2019-11-09 07:00:00 4.3 18 Noroeste 41 Noroeste 0 -- -- 78
2019-11-09 06:00:00 4.4 18 Noroeste 37 Noroeste 0 -- -- 77
2019-11-09 05:00:00 4.4 16 Noroeste 31 Noroeste 0 -- -- 76
2019-11-09 04:00:00 4.3 12 Noroeste 36 Oeste 0 -- -- 77
2019-11-09 03:00:00 4.1 13 Noroeste 35 Oeste 0 -- -- 79
2019-11-09 02:00:00 4.1 16 Noroeste 40 Noroeste 0 -- -- 79
2019-11-09 01:00:00 4.5 15 Noroeste 34 Noroeste 0 -- -- 76
2019-11-09 00:00:00 4.8 18 Noroeste 36 Noroeste 0 -- -- 75
2019-11-08 23:00:00 5.2 18 Noroeste 37 Noroeste 0 -- -- 74
2019-11-08 22:00:00 5.7 22 Noroeste 45 Noroeste 0 -- -- 73
2019-11-08 21:00:00 6.2 26 Noroeste 44 Oeste 0 -- -- 71
2019-11-08 20:00:00 6.6 18 Noroeste 42 Noroeste 0 -- -- 71
2019-11-08 19:00:00 6.7 18 Noroeste 49 Oeste 0 -- -- 67
2019-11-08 18:00:00 7.3 27 Noroeste 46 Oeste 0 -- -- 63
2019-11-08 17:00:00 8 18 Oeste 39 Noroeste 0 -- -- 60
2019-11-08 16:00:00 9.4 18 Noroeste 54 Noroeste 0 -- -- 53
2019-11-08 15:00:00 9.3 22 Noroeste 57 Norte 0 -- -- 51
2019-11-08 14:00:00 8.5 18 Oeste 51 Oeste 0 -- -- 56
2019-11-08 13:00:00 7.5 25 Noroeste 54 Noroeste 0 -- -- 60
2019-11-08 12:00:00 6.4 30 Noroeste 55 Noroeste 0 -- -- 66
2019-11-08 11:00:00 5.8 20 Oeste 36 Noroeste 0 -- -- 68
2019-11-08 10:00:00 4.9 15 Oeste 39 Oeste 0 -- -- 70
2019-11-08 09:00:00 3 16 Oeste 42 Oeste 0 -- -- 78
2019-11-08 08:00:00 2.5 24 Oeste 44 Oeste 0 -- -- 80
2019-11-08 07:00:00 2.5 22 Noroeste 45 Noroeste 0 -- -- 80
2019-11-08 06:00:00 2.7 17 Oeste 45 Noroeste 0 -- -- 78
2019-11-08 05:00:00 2.7 22 Oeste 46 Oeste 0 -- -- 78
2019-11-08 04:00:00 3 20 Noroeste 42 Noroeste 0 -- -- 76
2019-11-08 03:00:00 3.3 15 Noroeste 51 Noroeste 0 -- -- 73
2019-11-08 02:00:00 3.1 27 Noroeste 49 Noroeste 0 -- -- 76
2019-11-08 01:00:00 3.6 24 Noroeste 52 Noroeste 0 -- -- 76
2019-11-08 00:00:00 3.5 19 Noroeste 49 Noroeste 0 -- -- 76